Terminal Aerodrome Forecast
Issued by NWS Sterling, VA

Home | Current Version | Previous Version | Text Only | Print | Product List | Glossary On
Versions: 1 2 3 4 5 6 7 8 9 10 11 12 13 14 15 16 17 18 19 20 21 22 23 24 25 26 27
000
FTUS41 KLWX 261700
TAFIAD
TAF
KIAD 261737Z 2618/2724 35010G18KT 1SM -SN OVC008
     FM262100 33010G18KT 5SM -RASN BKN008 OVC015
     FM262300 31006KT P6SM SCT008 BKN025
     FM270600 VRB03KT 5SM BR OVC050
     FM271200 VRB03KT P6SM BKN050
     FM271600 31008KT P6SM BKN050=

USA.gov is the U.S. government's official web portal to all federal, state and local government web resources and services.